Terminal Aerodrome Forecast
Issued by NWS

Home | Current Version | Previous Version | Text Only | Print | Product List | Glossary Off
Versions: 1 2 3 4 5 6 7 8 9 10 11 12 13 14

000
FTUS43 KEAX 171729
TAFSTJ
TAF
KSTJ 171729Z 1718/1818 30013KT P6SM FEW250
      TEMPO 1718/1722 30013G21KT
     FM180000 VRB04KT P6SM SKC
     FM180800 16006KT P6SM SKC
     FM181500 17019G28KT P6SM FEW250=

USA.gov is the U.S. government's official web portal to all federal, state and local government web resources and services.